sensor_id;sensor_type;location;lat;lon;timestamp;temperature;humidity
40996;DHT22;26723;57.478;12.066;2023-02-11T00:02:15;7.20;99.90
40996;DHT22;26723;57.478;12.066;2023-02-11T00:05:24;7.30;99.90
40996;DHT22;26723;57.478;12.066;2023-02-11T00:08:32;7.30;99.90
40996;DHT22;26723;57.478;12.066;2023-02-11T00:11:40;7.30;99.90
40996;DHT22;26723;57.478;12.066;2023-02-11T00:14:49;7.30;99.90
40996;DHT22;26723;57.478;12.066;2023-02-11T00:17:59;7.30;99.90
40996;DHT22;26723;57.478;12.066;2023-02-11T00:21:08;7.40;99.90
40996;DHT22;26723;57.478;12.066;2023-02-11T00:24:17;7.30;99.90
40996;DHT22;26723;57.478;12.066;2023-02-11T00:27:25;7.30;99.90
40996;DHT22;26723;57.478;12.066;2023-02-11T00:30:34;7.30;99.90
40996;DHT22;26723;57.478;12.066;2023-02-11T00:33:44;7.30;99.90
40996;DHT22;26723;57.478;12.066;2023-02-11T00:36:52;7.40;99.90
40996;DHT22;26723;57.478;12.066;2023-02-11T00:40:01;7.40;99.90
40996;DHT22;26723;57.478;12.066;2023-02-11T00:43:12;7.40;99.90
40996;DHT22;26723;57.478;12.066;2023-02-11T00:46:21;7.40;99.90
40996;DHT22;26723;57.478;12.066;2023-02-11T00:49:31;7.40;99.90
40996;DHT22;26723;57.478;12.066;2023-02-11T00:52:40;7.40;99.90
40996;DHT22;26723;57.478;12.066;2023-02-11T00:55:48;7.40;99.90
40996;DHT22;26723;57.478;12.066;2023-02-11T00:58:57;7.40;99.90
40996;DHT22;26723;57.478;12.066;2023-02-11T01:02:06;7.40;99.90
40996;DHT22;26723;57.478;12.066;2023-02-11T01:05:16;7.30;99.90
40996;DHT22;26723;57.478;12.066;2023-02-11T01:08:24;7.30;99.90
40996;DHT22;26723;57.478;12.066;2023-02-11T01:11:33;7.30;99.90
40996;DHT22;26723;57.478;12.066;2023-02-11T01:14:41;7.20;99.90
40996;DHT22;26723;57.478;12.066;2023-02-11T01:17:50;7.20;99.90
40996;DHT22;26723;57.478;12.066;2023-02-11T01:21:00;7.20;99.90
40996;DHT22;26723;57.478;12.066;2023-02-11T01:24:08;7.10;99.90
40996;DHT22;26723;57.478;12.066;2023-02-11T01:27:17;7.10;99.90
40996;DHT22;26723;57.478;12.066;2023-02-11T01:30:25;7.10;99.90
40996;DHT22;26723;57.478;12.066;2023-02-11T01:33:34;7.10;99.90
40996;DHT22;26723;57.478;12.066;2023-02-11T01:36:46;7.20;99.90
40996;DHT22;26723;57.478;12.066;2023-02-11T01:39:54;7.20;99.90
40996;DHT22;26723;57.478;12.066;2023-02-11T01:43:03;7.20;99.90
40996;DHT22;26723;57.478;12.066;2023-02-11T01:46:33;7.20;99.90
40996;DHT22;26723;57.478;12.066;2023-02-11T01:49:44;7.10;99.90
40996;DHT22;26723;57.478;12.066;2023-02-11T01:52:55;7.10;99.90
40996;DHT22;26723;57.478;12.066;2023-02-11T01:56:26;7.10;99.90
40996;DHT22;26723;57.478;12.066;2023-02-11T02:00:05;7.10;99.90
40996;DHT22;26723;57.478;12.066;2023-02-11T02:03:22;7.10;99.90
40996;DHT22;26723;57.478;12.066;2023-02-11T02:06:34;7.00;99.90
40996;DHT22;26723;57.478;12.066;2023-02-11T02:09:48;7.10;99.90
40996;DHT22;26723;57.478;12.066;2023-02-11T02:13:00;7.00;99.90
40996;DHT22;26723;57.478;12.066;2023-02-11T02:16:12;7.00;99.90
40996;DHT22;26723;57.478;12.066;2023-02-11T02:19:48;7.00;99.90
40996;DHT22;26723;57.478;12.066;2023-02-11T02:23:18;7.00;99.90
40996;DHT22;26723;57.478;12.066;2023-02-11T02:26:44;6.90;99.90
40996;DHT22;26723;57.478;12.066;2023-02-11T02:30:19;6.90;99.90
40996;DHT22;26723;57.478;12.066;2023-02-11T02:33:44;6.90;99.90
40996;DHT22;26723;57.478;12.066;2023-02-11T02:36:59;6.90;99.90
40996;DHT22;26723;57.478;12.066;2023-02-11T02:40:16;6.90;99.90
40996;DHT22;26723;57.478;12.066;2023-02-11T02:43:27;6.90;99.90
40996;DHT22;26723;57.478;12.066;2023-02-11T02:46:36;7.00;99.90
40996;DHT22;26723;57.478;12.066;2023-02-11T02:49:46;7.00;99.90
40996;DHT22;26723;57.478;12.066;2023-02-11T02:53:04;7.00;99.90
40996;DHT22;26723;57.478;12.066;2023-02-11T02:56:22;7.00;99.90
40996;DHT22;26723;57.478;12.066;2023-02-11T02:59:42;7.00;99.90
40996;DHT22;26723;57.478;12.066;2023-02-11T03:03:06;7.00;99.90
40996;DHT22;26723;57.478;12.066;2023-02-11T03:06:26;7.10;99.90
40996;DHT22;26723;57.478;12.066;2023-02-11T03:09:40;7.10;99.90
40996;DHT22;26723;57.478;12.066;2023-02-11T03:12:49;7.10;99.90
40996;DHT22;26723;57.478;12.066;2023-02-11T03:16:03;7.10;99.90
40996;DHT22;26723;57.478;12.066;2023-02-11T03:19:18;7.00;99.90
40996;DHT22;26723;57.478;12.066;2023-02-11T03:22:32;7.00;99.90
40996;DHT22;26723;57.478;12.066;2023-02-11T03:25:47;7.10;99.90
40996;DHT22;26723;57.478;12.066;2023-02-11T03:29:03;7.10;99.90
40996;DHT22;26723;57.478;12.066;2023-02-11T03:32:16;7.20;99.90
40996;DHT22;26723;57.478;12.066;2023-02-11T03:35:31;7.20;99.90
40996;DHT22;26723;57.478;12.066;2023-02-11T03:38:46;7.30;99.90
40996;DHT22;26723;57.478;12.066;2023-02-11T03:41:57;7.30;99.90
40996;DHT22;26723;57.478;12.066;2023-02-11T03:45:10;7.30;99.90
40996;DHT22;26723;57.478;12.066;2023-02-11T03:48:22;7.40;99.90
40996;DHT22;26723;57.478;12.066;2023-02-11T03:51:32;7.40;99.90
40996;DHT22;26723;57.478;12.066;2023-02-11T03:54:43;7.40;99.90
40996;DHT22;26723;57.478;12.066;2023-02-11T03:57:53;7.40;99.90
40996;DHT22;26723;57.478;12.066;2023-02-11T04:01:01;7.40;99.90
40996;DHT22;26723;57.478;12.066;2023-02-11T04:04:11;7.40;99.90
40996;DHT22;26723;57.478;12.066;2023-02-11T04:07:20;7.40;99.90
40996;DHT22;26723;57.478;12.066;2023-02-11T04:10:29;7.40;99.90
40996;DHT22;26723;57.478;12.066;2023-02-11T04:13:38;7.40;99.90
40996;DHT22;26723;57.478;12.066;2023-02-11T04:16:46;7.30;99.90
40996;DHT22;26723;57.478;12.066;2023-02-11T04:19:54;7.30;99.90
40996;DHT22;26723;57.478;12.066;2023-02-11T04:23:03;7.30;99.90
40996;DHT22;26723;57.478;12.066;2023-02-11T04:26:13;7.30;99.90
40996;DHT22;26723;57.478;12.066;2023-02-11T04:29:21;7.20;99.90
40996;DHT22;26723;57.478;12.066;2023-02-11T04:32:29;7.20;99.90
40996;DHT22;26723;57.478;12.066;2023-02-11T04:35:38;7.20;99.90
40996;DHT22;26723;57.478;12.066;2023-02-11T04:38:46;7.20;99.90
40996;DHT22;26723;57.478;12.066;2023-02-11T04:41:56;7.20;99.90
40996;DHT22;26723;57.478;12.066;2023-02-11T04:45:05;7.20;99.90
40996;DHT22;26723;57.478;12.066;2023-02-11T04:48:14;7.30;99.90
40996;DHT22;26723;57.478;12.066;2023-02-11T04:51:22;7.30;99.90
40996;DHT22;26723;57.478;12.066;2023-02-11T04:54:31;7.30;99.90
40996;DHT22;26723;57.478;12.066;2023-02-11T04:57:41;7.20;99.90
40996;DHT22;26723;57.478;12.066;2023-02-11T05:00:49;7.20;99.90
40996;DHT22;26723;57.478;12.066;2023-02-11T05:03:57;7.20;99.90
40996;DHT22;26723;57.478;12.066;2023-02-11T05:07:06;7.20;99.90
40996;DHT22;26723;57.478;12.066;2023-02-11T05:10:14;7.10;99.90
40996;DHT22;26723;57.478;12.066;2023-02-11T05:13:24;7.10;99.90
40996;DHT22;26723;57.478;12.066;2023-02-11T05:16:33;7.10;99.90
40996;DHT22;26723;57.478;12.066;2023-02-11T05:19:41;7.00;99.90
40996;DHT22;26723;57.478;12.066;2023-02-11T05:22:50;7.00;99.90
40996;DHT22;26723;57.478;12.066;2023-02-11T05:25:58;7.10;99.90
40996;DHT22;26723;57.478;12.066;2023-02-11T05:29:08;7.00;99.90
40996;DHT22;26723;57.478;12.066;2023-02-11T05:32:17;7.00;99.90
40996;DHT22;26723;57.478;12.066;2023-02-11T05:35:26;7.10;99.90
40996;DHT22;26723;57.478;12.066;2023-02-11T05:38:35;7.00;99.90
40996;DHT22;26723;57.478;12.066;2023-02-11T05:41:43;7.00;99.90
40996;DHT22;26723;57.478;12.066;2023-02-11T05:44:53;7.00;99.90
40996;DHT22;26723;57.478;12.066;2023-02-11T05:48:01;6.90;99.90
40996;DHT22;26723;57.478;12.066;2023-02-11T05:51:10;7.00;99.90
40996;DHT22;26723;57.478;12.066;2023-02-11T05:54:18;6.90;99.90
40996;DHT22;26723;57.478;12.066;2023-02-11T05:57:27;6.90;99.90
40996;DHT22;26723;57.478;12.066;2023-02-11T06:00:36;6.90;99.90
40996;DHT22;26723;57.478;12.066;2023-02-11T06:03:45;6.90;99.90
40996;DHT22;26723;57.478;12.066;2023-02-11T06:06:56;6.90;99.90
40996;DHT22;26723;57.478;12.066;2023-02-11T06:10:05;6.80;99.90
40996;DHT22;26723;57.478;12.066;2023-02-11T06:13:13;6.80;99.90
40996;DHT22;26723;57.478;12.066;2023-02-11T06:16:26;6.80;99.90
40996;DHT22;26723;57.478;12.066;2023-02-11T06:19:34;6.80;99.90
40996;DHT22;26723;57.478;12.066;2023-02-11T06:22:43;6.70;99.90
40996;DHT22;26723;57.478;12.066;2023-02-11T06:25:51;6.70;99.90
40996;DHT22;26723;57.478;12.066;2023-02-11T06:29:02;6.70;99.90
40996;DHT22;26723;57.478;12.066;2023-02-11T06:32:13;6.70;99.90
40996;DHT22;26723;57.478;12.066;2023-02-11T06:35:41;6.70;99.90
40996;DHT22;26723;57.478;12.066;2023-02-11T06:38:50;6.80;99.90
40996;DHT22;26723;57.478;12.066;2023-02-11T06:41:58;6.70;99.90
40996;DHT22;26723;57.478;12.066;2023-02-11T06:45:07;6.80;99.90
40996;DHT22;26723;57.478;12.066;2023-02-11T06:48:18;6.80;99.90
40996;DHT22;26723;57.478;12.066;2023-02-11T06:51:26;6.80;99.90
40996;DHT22;26723;57.478;12.066;2023-02-11T06:54:35;6.80;99.90
40996;DHT22;26723;57.478;12.066;2023-02-11T06:57:43;6.80;99.90
40996;DHT22;26723;57.478;12.066;2023-02-11T07:00:52;6.80;99.90
40996;DHT22;26723;57.478;12.066;2023-02-11T07:04:02;6.80;99.90
40996;DHT22;26723;57.478;12.066;2023-02-11T07:07:10;6.90;99.90
40996;DHT22;26723;57.478;12.066;2023-02-11T07:10:18;6.90;99.90
40996;DHT22;26723;57.478;12.066;2023-02-11T07:13:27;7.00;99.90
40996;DHT22;26723;57.478;12.066;2023-02-11T07:16:36;7.00;99.90
40996;DHT22;26723;57.478;12.066;2023-02-11T07:19:46;7.20;99.90
40996;DHT22;26723;57.478;12.066;2023-02-11T07:22:55;7.30;99.90
40996;DHT22;26723;57.478;12.066;2023-02-11T07:26:05;7.60;99.90
40996;DHT22;26723;57.478;12.066;2023-02-11T07:29:13;8.00;99.90
40996;DHT22;26723;57.478;12.066;2023-02-11T07:32:22;9.40;99.90
40996;DHT22;26723;57.478;12.066;2023-02-11T07:35:32;10.50;99.90
40996;DHT22;26723;57.478;12.066;2023-02-11T07:38:40;11.40;99.90
40996;DHT22;26723;57.478;12.066;2023-02-11T07:41:49;11.70;99.90
40996;DHT22;26723;57.478;12.066;2023-02-11T07:44:57;12.50;99.90
40996;DHT22;26723;57.478;12.066;2023-02-11T07:48:06;13.40;99.90
40996;DHT22;26723;57.478;12.066;2023-02-11T07:51:17;14.00;99.90
40996;DHT22;26723;57.478;12.066;2023-02-11T07:54:26;14.80;99.90
40996;DHT22;26723;57.478;12.066;2023-02-11T07:57:35;15.30;99.90
40996;DHT22;26723;57.478;12.066;2023-02-11T08:00:43;15.90;99.90
40996;DHT22;26723;57.478;12.066;2023-02-11T08:03:52;16.40;99.90
40996;DHT22;26723;57.478;12.066;2023-02-11T08:07:02;16.50;99.90
40996;DHT22;26723;57.478;12.066;2023-02-11T08:10:11;16.20;99.90
40996;DHT22;26723;57.478;12.066;2023-02-11T08:13:19;17.20;99.90
40996;DHT22;26723;57.478;12.066;2023-02-11T08:16:30;17.80;99.90
40996;DHT22;26723;57.478;12.066;2023-02-11T08:19:39;18.00;99.90
40996;DHT22;26723;57.478;12.066;2023-02-11T08:22:48;17.30;99.90
40996;DHT22;26723;57.478;12.066;2023-02-11T08:26:00;17.50;99.90
40996;DHT22;26723;57.478;12.066;2023-02-11T08:29:10;16.70;99.90
40996;DHT22;26723;57.478;12.066;2023-02-11T08:32:19;16.00;99.90
40996;DHT22;26723;57.478;12.066;2023-02-11T08:35:28;16.20;99.90
40996;DHT22;26723;57.478;12.066;2023-02-11T08:38:38;14.70;99.90
40996;DHT22;26723;57.478;12.066;2023-02-11T08:41:47;13.50;99.90
40996;DHT22;26723;57.478;12.066;2023-02-11T08:44:56;13.00;99.90
40996;DHT22;26723;57.478;12.066;2023-02-11T08:48:04;12.80;99.90
40996;DHT22;26723;57.478;12.066;2023-02-11T08:51:16;12.60;99.90
40996;DHT22;26723;57.478;12.066;2023-02-11T08:54:26;12.30;99.90
40996;DHT22;26723;57.478;12.066;2023-02-11T08:57:35;12.10;99.90
40996;DHT22;26723;57.478;12.066;2023-02-11T09:00:43;11.90;99.90
40996;DHT22;26723;57.478;12.066;2023-02-11T09:03:52;12.10;99.90
40996;DHT22;26723;57.478;12.066;2023-02-11T09:07:01;12.50;99.90
40996;DHT22;26723;57.478;12.066;2023-02-11T09:10:12;13.20;99.90
40996;DHT22;26723;57.478;12.066;2023-02-11T09:13:21;13.50;99.90
40996;DHT22;26723;57.478;12.066;2023-02-11T09:16:32;13.60;99.90
40996;DHT22;26723;57.478;12.066;2023-02-11T09:19:41;13.40;99.90
40996;DHT22;26723;57.478;12.066;2023-02-11T09:22:50;12.70;99.90
40996;DHT22;26723;57.478;12.066;2023-02-11T09:26:04;13.00;99.90
40996;DHT22;26723;57.478;12.066;2023-02-11T09:29:15;13.60;99.90
40996;DHT22;26723;57.478;12.066;2023-02-11T09:32:23;13.40;99.90
40996;DHT22;26723;57.478;12.066;2023-02-11T09:35:32;14.40;99.90
40996;DHT22;26723;57.478;12.066;2023-02-11T09:38:41;14.70;99.90
40996;DHT22;26723;57.478;12.066;2023-02-11T09:45:42;15.10;99.90
40996;DHT22;26723;57.478;12.066;2023-02-11T09:48:52;13.90;99.90
40996;DHT22;26723;57.478;12.066;2023-02-11T09:52:05;13.80;99.90
40996;DHT22;26723;57.478;12.066;2023-02-11T09:55:19;14.00;99.90
40996;DHT22;26723;57.478;12.066;2023-02-11T09:58:30;13.70;99.90
40996;DHT22;26723;57.478;12.066;2023-02-11T10:01:47;14.00;99.90
40996;DHT22;26723;57.478;12.066;2023-02-11T10:05:16;13.80;99.90
40996;DHT22;26723;57.478;12.066;2023-02-11T10:08:32;13.50;99.90
40996;DHT22;26723;57.478;12.066;2023-02-11T10:11:51;13.40;99.90
40996;DHT22;26723;57.478;12.066;2023-02-11T10:15:09;13.00;99.90
40996;DHT22;26723;57.478;12.066;2023-02-11T10:18:37;13.10;99.90
40996;DHT22;26723;57.478;12.066;2023-02-11T10:21:56;13.20;99.90
40996;DHT22;26723;57.478;12.066;2023-02-11T10:25:17;13.20;99.90
40996;DHT22;26723;57.478;12.066;2023-02-11T10:28:29;13.10;99.90
40996;DHT22;26723;57.478;12.066;2023-02-11T10:31:41;13.10;99.90
40996;DHT22;26723;57.478;12.066;2023-02-11T10:34:57;13.30;99.90
40996;DHT22;26723;57.478;12.066;2023-02-11T10:38:07;13.00;99.90
40996;DHT22;26723;57.478;12.066;2023-02-11T10:41:19;12.80;99.90
40996;DHT22;26723;57.478;12.066;2023-02-11T10:44:30;12.80;99.90
40996;DHT22;26723;57.478;12.066;2023-02-11T10:47:39;12.60;99.90
40996;DHT22;26723;57.478;12.066;2023-02-11T10:50:49;12.60;99.90
40996;DHT22;26723;57.478;12.066;2023-02-11T10:54:17;12.70;99.90
40996;DHT22;26723;57.478;12.066;2023-02-11T10:57:30;12.70;99.90
40996;DHT22;26723;57.478;12.066;2023-02-11T11:00:42;12.50;99.90
40996;DHT22;26723;57.478;12.066;2023-02-11T11:03:51;12.40;99.90
40996;DHT22;26723;57.478;12.066;2023-02-11T11:07:12;12.10;99.90
40996;DHT22;26723;57.478;12.066;2023-02-11T11:10:27;12.10;99.90
40996;DHT22;26723;57.478;12.066;2023-02-11T11:13:37;11.90;99.90
40996;DHT22;26723;57.478;12.066;2023-02-11T11:16:51;11.80;99.90
40996;DHT22;26723;57.478;12.066;2023-02-11T11:20:21;11.60;99.90
40996;DHT22;26723;57.478;12.066;2023-02-11T11:23:34;11.60;99.90
40996;DHT22;26723;57.478;12.066;2023-02-11T11:26:45;11.50;99.90
40996;DHT22;26723;57.478;12.066;2023-02-11T11:29:55;11.40;99.90
40996;DHT22;26723;57.478;12.066;2023-02-11T11:33:04;11.30;99.90
40996;DHT22;26723;57.478;12.066;2023-02-11T11:36:31;11.30;99.90
40996;DHT22;26723;57.478;12.066;2023-02-11T11:39:48;11.20;99.90
40996;DHT22;26723;57.478;12.066;2023-02-11T11:43:05;11.30;99.90
40996;DHT22;26723;57.478;12.066;2023-02-11T11:46:27;11.30;99.90
40996;DHT22;26723;57.478;12.066;2023-02-11T11:49:40;11.40;99.90
40996;DHT22;26723;57.478;12.066;2023-02-11T11:52:55;11.50;99.90
40996;DHT22;26723;57.478;12.066;2023-02-11T11:56:11;11.40;99.90
40996;DHT22;26723;57.478;12.066;2023-02-11T11:59:21;11.50;99.90
40996;DHT22;26723;57.478;12.066;2023-02-11T12:02:50;11.50;99.90
40996;DHT22;26723;57.478;12.066;2023-02-11T12:06:26;11.50;99.90
40996;DHT22;26723;57.478;12.066;2023-02-11T12:09:44;11.50;99.90
40996;DHT22;26723;57.478;12.066;2023-02-11T12:13:08;11.50;99.90
40996;DHT22;26723;57.478;12.066;2023-02-11T12:16:29;11.50;99.90
40996;DHT22;26723;57.478;12.066;2023-02-11T12:19:57;11.60;99.90
40996;DHT22;26723;57.478;12.066;2023-02-11T12:23:26;11.70;99.90
40996;DHT22;26723;57.478;12.066;2023-02-11T12:26:44;11.60;99.90
40996;DHT22;26723;57.478;12.066;2023-02-11T12:30:12;11.70;99.90
40996;DHT22;26723;57.478;12.066;2023-02-11T12:33:37;11.80;99.90
40996;DHT22;26723;57.478;12.066;2023-02-11T12:37:00;11.80;99.90
40996;DHT22;26723;57.478;12.066;2023-02-11T12:40:16;11.80;99.90
40996;DHT22;26723;57.478;12.066;2023-02-11T12:43:32;11.70;99.90
40996;DHT22;26723;57.478;12.066;2023-02-11T12:46:48;11.60;99.90
40996;DHT22;26723;57.478;12.066;2023-02-11T12:50:06;11.50;99.90
40996;DHT22;26723;57.478;12.066;2023-02-11T12:53:37;11.50;99.90
40996;DHT22;26723;57.478;12.066;2023-02-11T12:56:53;11.50;99.90
40996;DHT22;26723;57.478;12.066;2023-02-11T13:00:07;11.40;99.90
40996;DHT22;26723;57.478;12.066;2023-02-11T13:03:27;11.50;99.90
40996;DHT22;26723;57.478;12.066;2023-02-11T13:06:44;11.60;99.90
40996;DHT22;26723;57.478;12.066;2023-02-11T13:09:58;11.50;99.90
40996;DHT22;26723;57.478;12.066;2023-02-11T13:13:14;11.40;99.90
40996;DHT22;26723;57.478;12.066;2023-02-11T13:16:34;11.30;99.90
40996;DHT22;26723;57.478;12.066;2023-02-11T13:19:48;11.20;99.90
40996;DHT22;26723;57.478;12.066;2023-02-11T13:23:04;11.20;99.90
40996;DHT22;26723;57.478;12.066;2023-02-11T13:26:19;11.20;99.90
40996;DHT22;26723;57.478;12.066;2023-02-11T13:29:39;11.20;99.90
40996;DHT22;26723;57.478;12.066;2023-02-11T13:33:04;11.10;99.90
40996;DHT22;26723;57.478;12.066;2023-02-11T13:36:23;11.20;99.90
40996;DHT22;26723;57.478;12.066;2023-02-11T13:39:32;11.10;99.90
40996;DHT22;26723;57.478;12.066;2023-02-11T13:42:50;11.00;99.90
40996;DHT22;26723;57.478;12.066;2023-02-11T13:46:00;10.80;99.90
40996;DHT22;26723;57.478;12.066;2023-02-11T13:49:18;10.80;99.90
40996;DHT22;26723;57.478;12.066;2023-02-11T13:52:30;10.70;99.90
40996;DHT22;26723;57.478;12.066;2023-02-11T13:55:40;10.70;99.90
40996;DHT22;26723;57.478;12.066;2023-02-11T13:58:49;10.70;99.90
40996;DHT22;26723;57.478;12.066;2023-02-11T14:02:04;10.70;99.90
40996;DHT22;26723;57.478;12.066;2023-02-11T14:05:31;10.70;99.90
40996;DHT22;26723;57.478;12.066;2023-02-11T14:09:38;10.60;99.90
40996;DHT22;26723;57.478;12.066;2023-02-11T14:13:04;10.50;99.90
40996;DHT22;26723;57.478;12.066;2023-02-11T14:16:15;10.40;99.90
40996;DHT22;26723;57.478;12.066;2023-02-11T14:19:43;10.40;99.90
40996;DHT22;26723;57.478;12.066;2023-02-11T14:22:52;10.30;99.90
40996;DHT22;26723;57.478;12.066;2023-02-11T14:26:31;10.30;99.90
40996;DHT22;26723;57.478;12.066;2023-02-11T14:29:49;10.30;99.90
40996;DHT22;26723;57.478;12.066;2023-02-11T14:37:12;10.30;99.90
40996;DHT22;26723;57.478;12.066;2023-02-11T14:40:26;10.20;99.90
40996;DHT22;26723;57.478;12.066;2023-02-11T14:43:40;10.10;99.90
40996;DHT22;26723;57.478;12.066;2023-02-11T14:46:53;10.00;99.90
40996;DHT22;26723;57.478;12.066;2023-02-11T14:50:02;10.00;99.90
40996;DHT22;26723;57.478;12.066;2023-02-11T14:53:18;10.00;99.90
40996;DHT22;26723;57.478;12.066;2023-02-11T14:56:28;9.90;99.90
40996;DHT22;26723;57.478;12.066;2023-02-11T14:59:39;9.80;99.90
40996;DHT22;26723;57.478;12.066;2023-02-11T15:02:48;9.80;99.90
40996;DHT22;26723;57.478;12.066;2023-02-11T15:05:58;9.80;99.90
40996;DHT22;26723;57.478;12.066;2023-02-11T15:09:15;9.70;99.90
40996;DHT22;26723;57.478;12.066;2023-02-11T15:12:25;9.60;99.90
40996;DHT22;26723;57.478;12.066;2023-02-11T15:15:38;9.50;99.90
40996;DHT22;26723;57.478;12.066;2023-02-11T15:18:48;9.40;99.90
40996;DHT22;26723;57.478;12.066;2023-02-11T15:21:58;9.30;99.90
40996;DHT22;26723;57.478;12.066;2023-02-11T15:25:09;9.20;99.90
40996;DHT22;26723;57.478;12.066;2023-02-11T15:28:21;9.10;99.90
40996;DHT22;26723;57.478;12.066;2023-02-11T15:31:32;9.00;99.90
40996;DHT22;26723;57.478;12.066;2023-02-11T15:34:41;8.90;99.90
40996;DHT22;26723;57.478;12.066;2023-02-11T15:37:50;8.80;99.90
40996;DHT22;26723;57.478;12.066;2023-02-11T15:40:59;8.80;99.90
40996;DHT22;26723;57.478;12.066;2023-02-11T15:44:25;8.70;99.90
40996;DHT22;26723;57.478;12.066;2023-02-11T15:47:35;8.60;99.90
40996;DHT22;26723;57.478;12.066;2023-02-11T15:50:50;8.50;99.90
40996;DHT22;26723;57.478;12.066;2023-02-11T15:54:01;8.30;99.90
40996;DHT22;26723;57.478;12.066;2023-02-11T15:57:11;8.20;99.90
40996;DHT22;26723;57.478;12.066;2023-02-11T16:00:22;8.10;99.90
40996;DHT22;26723;57.478;12.066;2023-02-11T16:03:33;7.90;99.90
40996;DHT22;26723;57.478;12.066;2023-02-11T16:06:42;7.80;99.90
40996;DHT22;26723;57.478;12.066;2023-02-11T16:09:56;7.80;99.90
40996;DHT22;26723;57.478;12.066;2023-02-11T16:13:18;7.70;99.90
40996;DHT22;26723;57.478;12.066;2023-02-11T16:16:28;7.70;99.90
40996;DHT22;26723;57.478;12.066;2023-02-11T16:19:45;7.70;99.90
40996;DHT22;26723;57.478;12.066;2023-02-11T16:22:54;7.60;99.90
40996;DHT22;26723;57.478;12.066;2023-02-11T16:26:05;7.50;99.90
40996;DHT22;26723;57.478;12.066;2023-02-11T16:29:17;7.40;99.90
40996;DHT22;26723;57.478;12.066;2023-02-11T16:32:29;7.40;99.90
40996;DHT22;26723;57.478;12.066;2023-02-11T16:35:39;7.30;99.90
40996;DHT22;26723;57.478;12.066;2023-02-11T16:38:50;7.20;99.90
40996;DHT22;26723;57.478;12.066;2023-02-11T16:41:59;7.10;99.90
40996;DHT22;26723;57.478;12.066;2023-02-11T16:45:08;6.90;99.90
40996;DHT22;26723;57.478;12.066;2023-02-11T16:48:18;6.90;99.90
40996;DHT22;26723;57.478;12.066;2023-02-11T16:51:29;6.80;99.90
40996;DHT22;26723;57.478;12.066;2023-02-11T16:54:38;6.80;99.90
40996;DHT22;26723;57.478;12.066;2023-02-11T16:57:47;6.70;99.90
40996;DHT22;26723;57.478;12.066;2023-02-11T17:00:56;6.70;99.90
40996;DHT22;26723;57.478;12.066;2023-02-11T17:04:05;6.80;99.90
40996;DHT22;26723;57.478;12.066;2023-02-11T17:07:16;6.70;99.90
40996;DHT22;26723;57.478;12.066;2023-02-11T17:10:26;6.60;99.90
40996;DHT22;26723;57.478;12.066;2023-02-11T17:13:36;6.60;99.90
40996;DHT22;26723;57.478;12.066;2023-02-11T17:16:46;6.60;99.90
40996;DHT22;26723;57.478;12.066;2023-02-11T17:19:55;6.50;99.90
40996;DHT22;26723;57.478;12.066;2023-02-11T17:23:05;6.40;99.90
40996;DHT22;26723;57.478;12.066;2023-02-11T17:26:15;6.30;99.90
40996;DHT22;26723;57.478;12.066;2023-02-11T17:29:24;6.40;99.90
40996;DHT22;26723;57.478;12.066;2023-02-11T17:32:33;6.40;99.90
40996;DHT22;26723;57.478;12.066;2023-02-11T17:35:41;6.30;99.90
40996;DHT22;26723;57.478;12.066;2023-02-11T17:38:53;6.20;99.90
40996;DHT22;26723;57.478;12.066;2023-02-11T17:42:02;6.20;99.90
40996;DHT22;26723;57.478;12.066;2023-02-11T17:45:11;6.20;99.90
40996;DHT22;26723;57.478;12.066;2023-02-11T17:48:20;6.20;99.90
40996;DHT22;26723;57.478;12.066;2023-02-11T17:51:31;6.20;99.90
40996;DHT22;26723;57.478;12.066;2023-02-11T17:54:42;6.10;99.90
40996;DHT22;26723;57.478;12.066;2023-02-11T17:57:51;6.10;99.90
40996;DHT22;26723;57.478;12.066;2023-02-11T18:00:59;6.10;99.90
40996;DHT22;26723;57.478;12.066;2023-02-11T18:04:12;6.00;99.90
40996;DHT22;26723;57.478;12.066;2023-02-11T18:07:20;6.00;99.90
40996;DHT22;26723;57.478;12.066;2023-02-11T18:10:31;5.80;99.90
40996;DHT22;26723;57.478;12.066;2023-02-11T18:13:40;5.60;99.90
40996;DHT22;26723;57.478;12.066;2023-02-11T18:16:49;5.50;99.90
40996;DHT22;26723;57.478;12.066;2023-02-11T18:19:58;5.40;99.90
40996;DHT22;26723;57.478;12.066;2023-02-11T18:23:06;5.30;99.90
40996;DHT22;26723;57.478;12.066;2023-02-11T18:26:18;5.10;99.90
40996;DHT22;26723;57.478;12.066;2023-02-11T18:29:27;5.00;99.90
40996;DHT22;26723;57.478;12.066;2023-02-11T18:32:35;5.00;99.90
40996;DHT22;26723;57.478;12.066;2023-02-11T18:35:44;5.00;99.90
40996;DHT22;26723;57.478;12.066;2023-02-11T18:38:55;5.10;99.90
40996;DHT22;26723;57.478;12.066;2023-02-11T18:42:07;5.00;99.90
40996;DHT22;26723;57.478;12.066;2023-02-11T18:45:15;5.00;99.90
40996;DHT22;26723;57.478;12.066;2023-02-11T18:48:24;4.90;99.90
40996;DHT22;26723;57.478;12.066;2023-02-11T18:51:33;4.80;99.90
40996;DHT22;26723;57.478;12.066;2023-02-11T18:54:42;4.80;99.90
40996;DHT22;26723;57.478;12.066;2023-02-11T18:57:52;4.60;99.90
40996;DHT22;26723;57.478;12.066;2023-02-11T19:01:07;4.60;99.90
40996;DHT22;26723;57.478;12.066;2023-02-11T19:04:16;4.60;99.90
40996;DHT22;26723;57.478;12.066;2023-02-11T19:07:26;4.60;99.90
40996;DHT22;26723;57.478;12.066;2023-02-11T19:10:34;4.50;99.90
40996;DHT22;26723;57.478;12.066;2023-02-11T19:13:47;4.40;99.90
40996;DHT22;26723;57.478;12.066;2023-02-11T19:16:58;4.30;99.90
40996;DHT22;26723;57.478;12.066;2023-02-11T19:20:08;4.20;99.90
40996;DHT22;26723;57.478;12.066;2023-02-11T19:23:16;4.10;99.90
40996;DHT22;26723;57.478;12.066;2023-02-11T19:26:25;4.00;99.90
40996;DHT22;26723;57.478;12.066;2023-02-11T19:29:35;4.00;99.90
40996;DHT22;26723;57.478;12.066;2023-02-11T19:32:44;4.00;99.90
40996;DHT22;26723;57.478;12.066;2023-02-11T19:35:52;4.10;99.90
40996;DHT22;26723;57.478;12.066;2023-02-11T19:39:02;4.10;99.90
40996;DHT22;26723;57.478;12.066;2023-02-11T19:42:12;4.20;99.90
40996;DHT22;26723;57.478;12.066;2023-02-11T19:45:22;4.10;99.90
40996;DHT22;26723;57.478;12.066;2023-02-11T19:48:30;3.90;99.90
40996;DHT22;26723;57.478;12.066;2023-02-11T19:51:39;3.90;99.90
40996;DHT22;26723;57.478;12.066;2023-02-11T19:54:47;4.00;99.90
40996;DHT22;26723;57.478;12.066;2023-02-11T19:57:55;4.00;99.90
40996;DHT22;26723;57.478;12.066;2023-02-11T20:01:08;4.00;99.90
40996;DHT22;26723;57.478;12.066;2023-02-11T20:04:16;3.80;99.90
40996;DHT22;26723;57.478;12.066;2023-02-11T20:07:25;3.70;99.90
40996;DHT22;26723;57.478;12.066;2023-02-11T20:10:35;3.80;99.90
40996;DHT22;26723;57.478;12.066;2023-02-11T20:13:44;3.80;99.90
40996;DHT22;26723;57.478;12.066;2023-02-11T20:16:53;3.90;99.90